Time,TemperatureF,DewpointF,PressureIn,WindDirection,WindDirectionDegrees,WindSpeedMPH,WindSpeedGustMPH,Humidity,HourlyPrecipIn,Conditions,Clouds,dailyrainin,SolarRadiationWatts/m^2,SoftwareType,DateUTC
2013-04-16 00:03:00,63.0,54.0,-100.00,ESE,112,4.0,6.0,72,0.00,,,0.02,0.000000,,2013-04-16 04:03:00,
2013-04-16 00:33:00,61.0,55.0,-100.00,NE,44,2.0,6.0,81,0.00,,,0.00,0.000000,,2013-04-16 04:33:00,
2013-04-16 00:42:00,61.0,55.0,-100.00,NE,44,2.0,6.0,81,0.00,,,0.00,0.000000,,2013-04-16 04:42:00,
2013-04-16 00:53:00,61.0,55.0,-100.00,NE,44,2.0,6.0,81,0.00,,,0.00,0.000000,,2013-04-16 04:53:00,
2013-04-16 01:03:00,61.0,55.0,-100.00,NE,44,2.0,6.0,81,0.00,,,0.00,0.000000,,2013-04-16 05:03:00,
2013-04-16 01:32:00,59.0,55.0,-100.00,NNW,340,1.0,3.0,87,0.00,,,0.00,0.000000,,2013-04-16 05:32:00,
2013-04-16 01:42:00,59.0,55.0,-100.00,NNW,340,1.0,3.0,87,0.00,,,0.00,0.000000,,2013-04-16 05:42:00,
2013-04-16 01:52:00,59.0,55.0,-100.00,NNW,340,1.0,3.0,87,0.00,,,0.00,0.000000,,2013-04-16 05:52:00,
2013-04-16 02:02:00,59.0,55.0,-100.00,NNW,340,1.0,3.0,87,0.00,,,0.00,0.000000,,2013-04-16 06:02:00,
2013-04-16 02:32:00,57.0,54.0,-100.00,WSW,239,1.0,2.0,91,0.00,,,0.00,0.000000,,2013-04-16 06:32:00,
2013-04-16 02:42:00,57.0,54.0,-100.00,WSW,239,1.0,2.0,91,0.00,,,0.00,0.000000,,2013-04-16 06:42:00,
2013-04-16 02:52:00,57.0,54.0,-100.00,WSW,239,1.0,2.0,91,0.00,,,0.00,0.000000,,2013-04-16 06:52:00,
2013-04-16 03:02:00,57.0,54.0,-100.00,WSW,239,1.0,2.0,91,0.00,,,0.00,0.000000,,2013-04-16 07:02:00,
2013-04-16 03:32:00,55.0,53.0,-100.00,WSW,243,1.0,2.0,94,0.00,,,0.00,0.000000,,2013-04-16 07:32:00,
2013-04-16 03:42:00,55.0,53.0,-100.00,WSW,243,1.0,2.0,94,0.00,,,0.00,0.000000,,2013-04-16 07:42:00,
2013-04-16 03:53:00,55.0,53.0,-100.00,WSW,243,1.0,2.0,94,0.00,,,0.00,0.000000,,2013-04-16 07:53:00,
2013-04-16 04:02:00,55.0,53.0,-100.00,WSW,243,1.0,2.0,94,0.00,,,0.00,0.000000,,2013-04-16 08:02:00,
2013-04-16 04:32:00,54.0,53.0,-100.00,WSW,253,1.0,4.0,98,0.00,,,0.00,0.000000,,2013-04-16 08:32:00,
2013-04-16 04:42:00,54.0,53.0,-100.00,WSW,253,1.0,4.0,98,0.00,,,0.00,0.000000,,2013-04-16 08:42:00,
2013-04-16 04:52:00,54.0,53.0,-100.00,WSW,253,1.0,4.0,98,0.00,,,0.00,0.000000,,2013-04-16 08:52:00,
2013-04-16 05:02:00,54.0,53.0,-100.00,WSW,253,1.0,4.0,98,0.00,,,0.00,0.000000,,2013-04-16 09:02:00,
2013-04-16 05:33:00,53.0,52.0,-100.00,WSW,240,2.0,3.0,98,0.00,,,0.00,0.000000,,2013-04-16 09:33:00,
2013-04-16 05:43:00,53.0,52.0,-100.00,WSW,240,2.0,3.0,98,0.00,,,0.00,0.000000,,2013-04-16 09:43:00,
2013-04-16 05:53:00,53.0,52.0,-100.00,WSW,240,2.0,3.0,98,0.00,,,0.00,0.000000,,2013-04-16 09:53:00,
2013-04-16 06:03:00,53.0,52.0,-100.00,WSW,240,2.0,3.0,98,0.00,,,0.00,0.000000,,2013-04-16 10:03:00,
2013-04-16 06:33:00,52.0,52.0,-100.00,WSW,246,2.0,3.0,99,0.00,,,0.00,0.000000,,2013-04-16 10:33:00,
2013-04-16 06:43:00,52.0,52.0,-100.00,WSW,246,2.0,3.0,99,0.00,,,0.00,0.000000,,2013-04-16 10:43:00,
2013-04-16 06:53:00,52.0,52.0,-100.00,WSW,246,2.0,3.0,99,0.00,,,0.00,0.000000,,2013-04-16 10:53:00,
2013-04-16 07:03:00,52.0,52.0,-100.00,WSW,246,2.0,3.0,99,0.00,,,0.00,0.000000,,2013-04-16 11:03:00,
2013-04-16 07:32:00,51.0,51.0,-100.00,South,185,2.0,3.0,100,0.00,,,0.00,1.000000,,2013-04-16 11:32:00,
2013-04-16 07:42:00,51.0,51.0,-100.00,South,185,2.0,3.0,100,0.00,,,0.00,1.000000,,2013-04-16 11:42:00,
2013-04-16 07:53:00,51.0,51.0,-100.00,South,185,2.0,3.0,100,0.00,,,0.00,1.000000,,2013-04-16 11:53:00,
2013-04-16 08:02:00,51.0,51.0,-100.00,South,185,2.0,3.0,100,0.00,,,0.00,1.000000,,2013-04-16 12:02:00,
2013-04-16 08:32:00,56.0,54.0,-100.00,SSE,149,2.0,3.0,92,0.00,,,0.00,81.000000,,2013-04-16 12:32:00,
2013-04-16 08:42:00,56.0,54.0,-100.00,SSE,149,2.0,3.0,92,0.00,,,0.00,81.000000,,2013-04-16 12:42:00,
2013-04-16 08:52:00,56.0,54.0,-100.00,SSE,149,2.0,3.0,92,0.00,,,0.00,81.000000,,2013-04-16 12:52:00,
2013-04-16 09:02:00,56.0,54.0,-100.00,SSE,149,2.0,3.0,92,0.00,,,0.00,81.000000,,2013-04-16 13:02:00,
2013-04-16 09:32:00,65.0,57.0,-100.00,ENE,59,2.0,4.0,76,0.00,,,0.00,245.000000,,2013-04-16 13:32:00,
2013-04-16 09:42:00,65.0,57.0,-100.00,ENE,59,2.0,4.0,76,0.00,,,0.00,245.000000,,2013-04-16 13:42:00,
2013-04-16 09:52:00,65.0,57.0,-100.00,ENE,59,2.0,4.0,76,0.00,,,0.00,245.000000,,2013-04-16 13:52:00,
2013-04-16 10:02:00,65.0,57.0,-100.00,ENE,59,2.0,4.0,76,0.00,,,0.00,245.000000,,2013-04-16 14:02:00,
2013-04-16 10:32:00,70.0,58.0,-100.00,ENE,57,2.0,4.0,66,0.00,,,0.00,422.000000,,2013-04-16 14:32:00,
2013-04-16 10:42:00,70.0,58.0,-100.00,ENE,57,2.0,4.0,66,0.00,,,0.00,422.000000,,2013-04-16 14:42:00,
2013-04-16 10:52:00,70.0,58.0,-100.00,ENE,57,2.0,4.0,66,0.00,,,0.00,422.000000,,2013-04-16 14:52:00,
2013-04-16 11:02:00,70.0,58.0,-100.00,ENE,57,2.0,4.0,66,0.00,,,0.00,422.000000,,2013-04-16 15:02:00,
2013-04-16 11:33:00,72.0,56.0,-100.00,NNE,21,3.0,6.0,58,0.00,,,0.00,585.000000,,2013-04-16 15:33:00,
2013-04-16 11:43:00,72.0,56.0,-100.00,NNE,21,3.0,6.0,58,0.00,,,0.00,585.000000,,2013-04-16 15:43:00,
2013-04-16 11:53:00,72.0,56.0,-100.00,NNE,21,3.0,6.0,58,0.00,,,0.00,585.000000,,2013-04-16 15:53:00,
2013-04-16 12:03:00,72.0,56.0,-100.00,NNE,21,3.0,6.0,58,0.00,,,0.00,585.000000,,2013-04-16 16:03:00,
2013-04-16 12:33:00,75.0,57.0,-100.00,NE,49,4.0,7.0,54,0.00,,,0.00,702.000000,,2013-04-16 16:33:00,
2013-04-16 12:42:00,75.0,57.0,-100.00,NE,49,4.0,7.0,54,0.00,,,0.00,702.000000,,2013-04-16 16:42:00,
2013-04-16 12:53:00,75.0,57.0,-100.00,NE,49,4.0,7.0,54,0.00,,,0.00,702.000000,,2013-04-16 16:53:00,
2013-04-16 13:02:00,75.0,57.0,-100.00,NE,49,4.0,7.0,54,0.00,,,0.00,702.000000,,2013-04-16 17:02:00,
2013-04-16 13:33:00,78.0,57.0,-100.00,NW,306,3.0,8.0,49,0.00,,,0.00,778.000000,,2013-04-16 17:33:00,
2013-04-16 13:43:00,78.0,57.0,-100.00,NW,306,3.0,8.0,49,0.00,,,0.00,778.000000,,2013-04-16 17:43:00,
2013-04-16 13:53:00,78.0,57.0,-100.00,NW,306,3.0,8.0,49,0.00,,,0.00,778.000000,,2013-04-16 17:53:00,
2013-04-16 14:02:00,78.0,57.0,-100.00,NW,306,3.0,8.0,49,0.00,,,0.00,778.000000,,2013-04-16 18:02:00,
2013-04-16 14:32:00,80.0,59.0,-100.00,North,4,5.0,9.0,48,0.00,,,0.00,831.000000,,2013-04-16 18:32:00,
2013-04-16 14:43:00,80.0,59.0,-100.00,North,4,5.0,9.0,48,0.00,,,0.00,831.000000,,2013-04-16 18:43:00,
2013-04-16 14:52:00,80.0,59.0,-100.00,North,4,5.0,9.0,48,0.00,,,0.00,831.000000,,2013-04-16 18:52:00,
2013-04-16 15:02:00,80.0,59.0,-100.00,North,4,5.0,9.0,48,0.00,,,0.00,831.000000,,2013-04-16 19:02:00,
2013-04-16 15:32:00,82.0,59.0,-100.00,SSW,192,4.0,9.0,45,0.00,,,0.00,778.000000,,2013-04-16 19:32:00,
2013-04-16 15:43:00,82.0,59.0,-100.00,SSW,192,4.0,9.0,45,0.00,,,0.00,778.000000,,2013-04-16 19:43:00,
2013-04-16 15:52:00,82.0,59.0,-100.00,SSW,192,4.0,9.0,45,0.00,,,0.00,778.000000,,2013-04-16 19:52:00,
2013-04-16 16:02:00,82.0,59.0,-100.00,SSW,192,4.0,9.0,45,0.00,,,0.00,778.000000,,2013-04-16 20:02:00,
2013-04-16 16:32:00,84.0,60.0,-100.00,SSE,149,3.0,8.0,44,0.00,,,0.00,707.000000,,2013-04-16 20:32:00,
2013-04-16 16:42:00,84.0,60.0,-100.00,SSE,149,3.0,8.0,44,0.00,,,0.00,707.000000,,2013-04-16 20:42:00,
2013-04-16 16:52:00,84.0,60.0,-100.00,SSE,149,3.0,8.0,44,0.00,,,0.00,707.000000,,2013-04-16 20:52:00,
2013-04-16 17:02:00,84.0,60.0,-100.00,SSE,149,3.0,8.0,44,0.00,,,0.00,707.000000,,2013-04-16 21:02:00,
2013-04-16 17:33:00,83.0,58.0,-100.00,West,268,4.0,12.0,43,0.00,,,0.00,556.000000,,2013-04-16 21:33:00,
2013-04-16 17:43:00,83.0,58.0,-100.00,West,268,4.0,12.0,43,0.00,,,0.00,556.000000,,2013-04-16 21:43:00,
2013-04-16 17:53:00,83.0,58.0,-100.00,West,268,4.0,12.0,43,0.00,,,0.00,556.000000,,2013-04-16 21:53:00,
2013-04-16 18:03:00,83.0,58.0,-100.00,West,268,4.0,12.0,43,0.00,,,0.00,556.000000,,2013-04-16 22:03:00,
2013-04-16 18:33:00,83.0,59.0,-100.00,WSW,238,3.0,7.0,44,0.00,,,0.00,316.000000,,2013-04-16 22:33:00,
2013-04-16 18:43:00,83.0,59.0,-100.00,WSW,238,3.0,7.0,44,0.00,,,0.00,316.000000,,2013-04-16 22:43:00,
2013-04-16 18:52:00,83.0,59.0,-100.00,WSW,238,3.0,7.0,44,0.00,,,0.00,316.000000,,2013-04-16 22:52:00,
2013-04-16 19:02:00,83.0,59.0,-100.00,WSW,238,3.0,7.0,44,0.00,,,0.00,316.000000,,2013-04-16 23:02:00,
2013-04-16 19:32:00,80.0,59.0,-100.00,WSW,243,3.0,7.0,48,0.00,,,0.00,192.000000,,2013-04-16 23:32:00,
2013-04-16 19:43:00,80.0,59.0,-100.00,WSW,243,3.0,7.0,48,0.00,,,0.00,192.000000,,2013-04-16 23:43:00,
2013-04-16 19:52:00,80.0,59.0,-100.00,WSW,243,3.0,7.0,48,0.00,,,0.00,192.000000,,2013-04-16 23:52:00,
2013-04-16 20:02:00,80.0,59.0,-100.00,WSW,243,3.0,7.0,48,0.00,,,0.00,192.000000,,2013-04-17 00:02:00,
2013-04-16 20:32:00,75.0,59.0,-100.00,West,278,0.0,6.0,58,0.00,,,-99.99,27.000000,,2013-04-17 00:32:00,
2013-04-16 20:42:00,75.0,59.0,-100.00,West,278,0.0,6.0,58,0.00,,,-99.99,27.000000,,2013-04-17 00:42:00,
2013-04-16 20:52:00,75.0,59.0,-100.00,West,278,0.0,6.0,58,0.00,,,-99.99,27.000000,,2013-04-17 00:52:00,
2013-04-16 21:02:00,75.0,59.0,-100.00,West,278,0.0,6.0,58,0.00,,,-99.99,27.000000,,2013-04-17 01:02:00,
2013-04-16 21:32:00,71.0,61.0,-100.00,SSW,210,1.0,2.0,70,0.00,,,0.00,0.000000,,2013-04-17 01:32:00,
2013-04-16 21:42:00,71.0,61.0,-100.00,SSW,210,1.0,2.0,70,0.00,,,0.00,0.000000,,2013-04-17 01:42:00,
2013-04-16 21:52:00,71.0,61.0,-100.00,SSW,210,1.0,2.0,70,0.00,,,0.00,0.000000,,2013-04-17 01:52:00,
2013-04-16 22:02:00,71.0,61.0,-100.00,SSW,210,1.0,2.0,70,0.00,,,0.00,0.000000,,2013-04-17 02:02:00,
2013-04-16 22:32:00,69.0,61.0,-100.00,WSW,245,2.0,3.0,77,0.00,,,0.00,0.000000,,2013-04-17 02:32:00,
2013-04-16 22:42:00,69.0,61.0,-100.00,WSW,245,2.0,3.0,77,0.00,,,0.00,0.000000,,2013-04-17 02:42:00,
2013-04-16 22:52:00,69.0,61.0,-100.00,WSW,245,2.0,3.0,77,0.00,,,0.00,0.000000,,2013-04-17 02:52:00,
2013-04-16 23:02:00,69.0,61.0,-100.00,WSW,245,2.0,3.0,77,0.00,,,0.00,0.000000,,2013-04-17 03:02:00,
2013-04-16 23:33:00,69.0,61.0,-100.00,SSE,154,1.0,3.0,77,0.00,,,0.00,0.000000,,2013-04-17 03:33:00,
2013-04-16 23:43:00,69.0,61.0,-100.00,SSE,154,1.0,3.0,77,0.00,,,0.00,0.000000,,2013-04-17 03:43:00,
2013-04-16 23:53:00,69.0,61.0,-100.00,SSE,154,1.0,3.0,77,0.00,,,0.00,0.000000,,2013-04-17 03:53:00,